createdAt,value
2023-03-19T00:01:46.895Z,9.80
2023-03-19T00:06:04.999Z,9.90
2023-03-19T00:10:24.065Z,9.90
2023-03-19T00:14:44.215Z,9.90
2023-03-19T00:19:02.448Z,9.90
2023-03-19T00:23:19.855Z,9.90
2023-03-19T00:27:39.945Z,9.90
2023-03-19T00:31:59.995Z,9.90
2023-03-19T00:36:21.763Z,9.90
2023-03-19T00:40:41.251Z,9.90
2023-03-19T00:45:00.992Z,9.80
2023-03-19T00:49:20.918Z,9.80
2023-03-19T00:53:39.958Z,9.80
2023-03-19T00:57:59.365Z,9.70
2023-03-19T01:02:18.926Z,9.70
2023-03-19T01:06:38.482Z,9.70
2023-03-19T01:10:56.667Z,9.70
2023-03-19T01:15:17.019Z,9.70
2023-03-19T01:19:37.729Z,9.70
2023-03-19T01:23:57.172Z,9.60
2023-03-19T01:28:18.106Z,9.60
2023-03-19T01:32:36.291Z,9.50
2023-03-19T01:37:14.546Z,9.50
2023-03-19T01:41:33.835Z,9.50
2023-03-19T01:46:20.893Z,9.40
2023-03-19T01:51:01.131Z,9.40
2023-03-19T01:55:37.270Z,9.30
2023-03-19T02:00:18.806Z,9.20
2023-03-19T02:04:37.893Z,9.20
2023-03-19T02:08:58.782Z,9.10
2023-03-19T02:13:20.651Z,9.10
2023-03-19T02:17:40.541Z,9.10
2023-03-19T02:21:58.513Z,9.10
2023-03-19T02:26:19.104Z,9.10
2023-03-19T02:30:41.317Z,9.10
2023-03-19T02:35:02.558Z,9.10
2023-03-19T02:39:26.301Z,9.20
2023-03-19T02:43:46.625Z,9.30
2023-03-19T02:48:06.870Z,9.30
2023-03-19T02:52:24.096Z,9.40
2023-03-19T02:56:42.566Z,9.40
2023-03-19T03:01:01.822Z,9.40
2023-03-19T03:05:21.534Z,9.40
2023-03-19T03:09:39.796Z,9.40
2023-03-19T03:13:57.745Z,9.40
2023-03-19T03:18:17.452Z,9.50
2023-03-19T03:22:36.808Z,9.40
2023-03-19T03:26:54.785Z,9.40
2023-03-19T03:31:13.714Z,9.50
2023-03-19T03:35:49.867Z,9.50
2023-03-19T03:40:14.343Z,9.50
2023-03-19T03:44:34.734Z,9.50
2023-03-19T03:48:55.659Z,9.50
2023-03-19T03:53:19.089Z,9.50
2023-03-19T03:57:39.777Z,9.50
2023-03-19T04:01:59.537Z,9.50
2023-03-19T04:06:22.038Z,9.50
2023-03-19T04:10:53.339Z,9.40
2023-03-19T04:15:15.558Z,9.40
2023-03-19T04:19:39.538Z,9.40
2023-03-19T04:23:57.561Z,9.40
2023-03-19T04:28:21.390Z,9.40
2023-03-19T04:32:44.479Z,9.50
2023-03-19T04:37:03.568Z,9.50
2023-03-19T04:41:27.783Z,9.50
2023-03-19T04:46:14.515Z,9.50
2023-03-19T04:50:35.148Z,9.50
2023-03-19T04:54:57.011Z,9.30
2023-03-19T04:59:18.366Z,9.30
2023-03-19T05:03:42.341Z,9.20
2023-03-19T05:08:02.217Z,9.10
2023-03-19T05:12:23.343Z,9.00
2023-03-19T05:16:44.992Z,8.90
2023-03-19T05:21:07.483Z,8.80
2023-03-19T05:25:27.124Z,8.80
2023-03-19T05:29:56.621Z,8.70
2023-03-19T05:34:33.673Z,8.70
2023-03-19T05:38:52.994Z,8.60
2023-03-19T05:43:20.091Z,8.70
2023-03-19T05:47:40.430Z,8.60
2023-03-19T05:52:03.702Z,8.70
2023-03-19T05:56:24.492Z,8.70
2023-03-19T06:00:58.383Z,8.70
2023-03-19T06:05:17.990Z,8.70
2023-03-19T06:09:41.190Z,8.80
2023-03-19T06:14:02.019Z,8.90
2023-03-19T06:18:29.560Z,9.00
2023-03-19T06:22:50.164Z,9.20
2023-03-19T06:27:09.734Z,9.40
2023-03-19T06:31:39.502Z,9.70
2023-03-19T06:36:09.833Z,9.90
2023-03-19T06:40:28.969Z,10.20
2023-03-19T06:44:48.572Z,10.70
2023-03-19T06:49:09.675Z,11.30
2023-03-19T06:53:27.626Z,12.30
2023-03-19T06:57:48.911Z,13.50
2023-03-19T07:02:08.962Z,14.70
2023-03-19T07:06:30.231Z,15.80
2023-03-19T07:10:51.031Z,16.90
2023-03-19T07:15:11.010Z,17.70
2023-03-19T07:19:28.688Z,17.70
2023-03-19T07:23:48.295Z,17.50
2023-03-19T07:28:07.563Z,17.50
2023-03-19T07:32:26.542Z,17.70
2023-03-19T07:36:46.126Z,17.90
2023-03-19T07:41:07.001Z,18.30
2023-03-19T07:45:26.370Z,18.80
2023-03-19T07:49:44.024Z,19.10
2023-03-19T07:54:01.896Z,19.40
2023-03-19T07:58:21.601Z,19.70
2023-03-19T08:02:42.838Z,20.40
2023-03-19T08:07:02.219Z,21.00
2023-03-19T08:11:20.335Z,21.00
2023-03-19T08:15:40.032Z,20.80
2023-03-19T08:19:59.766Z,20.40
2023-03-19T08:24:17.766Z,20.70
2023-03-19T08:28:35.698Z,21.40
2023-03-19T08:32:55.018Z,22.10
2023-03-19T08:37:14.936Z,22.50
2023-03-19T08:41:32.953Z,22.80
2023-03-19T08:45:52.476Z,23.10
2023-03-19T08:50:13.813Z,23.20
2023-03-19T08:54:33.766Z,23.40
2023-03-19T08:58:51.423Z,23.60
2023-03-19T09:03:09.412Z,23.60
2023-03-19T09:07:29.110Z,23.50
2023-03-19T09:11:49.308Z,23.30
2023-03-19T09:16:07.145Z,23.00
2023-03-19T09:20:24.816Z,22.50
2023-03-19T09:24:44.213Z,22.00
2023-03-19T09:29:04.987Z,21.50
2023-03-19T09:33:24.892Z,21.10
2023-03-19T09:37:43.281Z,20.70
2023-03-19T09:42:16.333Z,20.50
2023-03-19T09:46:43.460Z,20.40
2023-03-19T09:51:06.763Z,20.30
2023-03-19T09:55:37.660Z,20.20
2023-03-19T09:59:58.029Z,20.20
2023-03-19T10:04:41.654Z,20.40
2023-03-19T10:09:22.944Z,20.50
2023-03-19T10:13:55.590Z,20.50
2023-03-19T10:18:19.821Z,20.40
2023-03-19T10:22:40.188Z,20.10
2023-03-19T10:27:03.016Z,20.00
2023-03-19T10:31:31.064Z,19.80
2023-03-19T10:35:58.493Z,19.50
2023-03-19T10:40:23.334Z,19.30
2023-03-19T10:44:48.472Z,19.10
2023-03-19T10:49:05.587Z,19.10
2023-03-19T10:53:33.153Z,19.10
2023-03-19T10:57:52.863Z,19.10
2023-03-19T11:02:19.364Z,19.30
2023-03-19T11:06:40.250Z,19.70
2023-03-19T11:10:58.593Z,20.10
2023-03-19T11:15:22.090Z,20.40
2023-03-19T11:19:42.416Z,20.50
2023-03-19T11:24:03.078Z,20.40
2023-03-19T11:28:26.859Z,20.20
2023-03-19T11:33:09.713Z,20.10
2023-03-19T11:37:34.886Z,19.90
2023-03-19T11:42:21.171Z,19.70
2023-03-19T11:46:46.401Z,19.80
2023-03-19T11:51:12.383Z,20.30
2023-03-19T11:55:36.448Z,20.60
2023-03-19T12:00:13.724Z,20.70
2023-03-19T12:04:50.864Z,20.80
2023-03-19T12:09:17.722Z,20.90
2023-03-19T12:13:53.264Z,21.00
2023-03-19T12:18:23.784Z,20.90
2023-03-19T12:22:56.510Z,20.80
2023-03-19T12:27:27.492Z,20.60
2023-03-19T12:31:59.723Z,20.40
2023-03-19T12:36:25.080Z,20.10
2023-03-19T12:40:50.395Z,19.70
2023-03-19T12:45:25.315Z,19.30
2023-03-19T12:49:48.692Z,19.00
2023-03-19T12:54:14.088Z,18.80
2023-03-19T12:58:40.314Z,18.70
2023-03-19T13:03:06.596Z,18.40
2023-03-19T13:07:34.244Z,18.10
2023-03-19T13:12:00.004Z,17.70
2023-03-19T13:16:34.526Z,17.40
2023-03-19T13:21:11.657Z,17.10
2023-03-19T13:25:35.526Z,16.90
2023-03-19T13:30:04.067Z,16.70
2023-03-19T13:34:35.366Z,16.50
2023-03-19T13:38:53.183Z,16.20
2023-03-19T13:43:43.052Z,15.90
2023-03-19T13:48:25.694Z,15.60
2023-03-19T13:52:51.442Z,15.40
2023-03-19T13:57:22.644Z,15.10
2023-03-19T14:01:44.576Z,14.90
2023-03-19T14:06:04.261Z,14.70
2023-03-19T14:10:27.185Z,14.60
2023-03-19T14:14:50.971Z,14.50
2023-03-19T14:19:13.436Z,14.50
2023-03-19T14:23:41.196Z,14.40
2023-03-19T14:28:11.392Z,14.40
2023-03-19T14:32:35.570Z,14.30
2023-03-19T14:36:59.986Z,14.30
2023-03-19T14:41:20.771Z,14.30
2023-03-19T14:45:51.084Z,14.30
2023-03-19T14:50:41.941Z,14.40
2023-03-19T14:55:02.844Z,14.40
2023-03-19T14:59:21.872Z,14.40
2023-03-19T15:03:41.949Z,14.40
2023-03-19T15:08:04.763Z,14.40
2023-03-19T15:12:43.878Z,14.30
2023-03-19T15:17:07.754Z,14.20
2023-03-19T15:21:27.856Z,14.10
2023-03-19T15:25:48.268Z,14.10
2023-03-19T15:30:22.513Z,14.00
2023-03-19T15:34:42.627Z,14.00
2023-03-19T15:39:04.202Z,13.90
2023-03-19T15:43:24.851Z,13.90
2023-03-19T15:47:48.020Z,13.80
2023-03-19T15:52:09.613Z,13.80
2023-03-19T15:56:30.013Z,13.60
2023-03-19T16:00:48.603Z,13.60
2023-03-19T16:05:21.473Z,13.60
2023-03-19T16:09:39.781Z,13.60
2023-03-19T16:14:00.922Z,13.50
2023-03-19T16:18:26.487Z,13.40
2023-03-19T16:22:58.702Z,13.40
2023-03-19T16:27:19.200Z,13.40
2023-03-19T16:31:46.403Z,13.30
2023-03-19T16:36:05.656Z,13.30
2023-03-19T16:40:43.221Z,13.20
2023-03-19T16:45:18.141Z,13.20
2023-03-19T16:49:37.548Z,13.20
2023-03-19T16:53:57.229Z,13.10
2023-03-19T16:58:17.881Z,13.10
2023-03-19T17:02:36.259Z,13.10
2023-03-19T17:06:55.802Z,13.10
2023-03-19T17:11:25.082Z,13.00
2023-03-19T17:15:43.564Z,12.90
2023-03-19T17:20:00.956Z,12.90
2023-03-19T17:24:25.939Z,12.90
2023-03-19T17:28:43.123Z,12.80
2023-03-19T17:33:01.319Z,12.80
2023-03-19T17:37:19.226Z,12.80
2023-03-19T17:41:38.724Z,12.70
2023-03-19T17:45:58.419Z,12.70
2023-03-19T17:50:20.032Z,12.60
2023-03-19T17:54:37.656Z,12.60
2023-03-19T17:58:57.138Z,12.60
2023-03-19T18:03:19.337Z,12.50
2023-03-19T18:07:37.906Z,12.50
2023-03-19T18:11:56.938Z,12.50
2023-03-19T18:16:22.777Z,12.50
2023-03-19T18:20:42.592Z,12.50
2023-03-19T18:25:02.818Z,12.40
2023-03-19T18:29:20.679Z,12.40
2023-03-19T18:33:40.676Z,12.40
2023-03-19T18:38:00.642Z,12.40
2023-03-19T18:42:18.373Z,12.30
2023-03-19T18:46:38.408Z,12.30
2023-03-19T18:50:58.776Z,12.30
2023-03-19T18:55:18.798Z,12.20
2023-03-19T18:59:36.397Z,12.20
2023-03-19T19:03:54.310Z,12.20
2023-03-19T19:08:18.736Z,12.20
2023-03-19T19:12:39.330Z,12.20
2023-03-19T19:16:57.768Z,12.10
2023-03-19T19:21:16.106Z,12.10
2023-03-19T19:25:34.975Z,12.00
2023-03-19T19:29:55.045Z,12.00
2023-03-19T19:34:15.190Z,11.90
2023-03-19T19:38:34.043Z,11.80
2023-03-19T19:42:54.528Z,11.80
2023-03-19T19:47:15.823Z,11.70
2023-03-19T19:51:34.172Z,11.70
2023-03-19T19:55:52.430Z,11.70
2023-03-19T20:00:22.280Z,11.70
2023-03-19T20:04:40.673Z,11.70
2023-03-19T20:08:58.694Z,11.60
2023-03-19T20:13:24.998Z,11.60
2023-03-19T20:17:45.717Z,11.40
2023-03-19T20:22:05.173Z,11.40
2023-03-19T20:26:25.492Z,11.30
2023-03-19T20:30:44.401Z,11.30
2023-03-19T20:35:05.137Z,11.20
2023-03-19T20:39:23.499Z,11.10
2023-03-19T20:43:41.540Z,11.00
2023-03-19T20:47:59.661Z,10.90
2023-03-19T20:52:19.235Z,10.80
2023-03-19T20:56:46.334Z,10.70
2023-03-19T21:01:06.746Z,10.50
2023-03-19T21:05:25.663Z,10.40
2023-03-19T21:09:46.614Z,10.30
2023-03-19T21:14:07.970Z,10.20
2023-03-19T21:18:27.660Z,10.10
2023-03-19T21:22:48.235Z,10.00
2023-03-19T21:27:09.303Z,9.90
2023-03-19T21:31:28.153Z,9.90
2023-03-19T21:35:45.962Z,10.00
2023-03-19T21:40:04.133Z,10.00
2023-03-19T21:44:24.534Z,10.10
2023-03-19T21:48:43.999Z,10.20
2023-03-19T21:53:01.858Z,10.20
2023-03-19T21:57:19.511Z,10.30
2023-03-19T22:01:38.635Z,10.30
2023-03-19T22:05:58.698Z,10.40
2023-03-19T22:10:17.686Z,10.40
2023-03-19T22:14:38.669Z,10.40
2023-03-19T22:18:57.716Z,10.50
2023-03-19T22:23:16.836Z,10.50
2023-03-19T22:27:34.856Z,10.50
2023-03-19T22:31:54.243Z,10.50
2023-03-19T22:36:16.088Z,10.60
2023-03-19T22:40:35.759Z,10.70
2023-03-19T22:44:54.603Z,10.70
2023-03-19T22:49:16.594Z,10.70
2023-03-19T22:53:38.458Z,10.70
2023-03-19T22:57:56.646Z,10.80
2023-03-19T23:02:16.184Z,10.70
2023-03-19T23:06:35.885Z,10.80
2023-03-19T23:10:55.772Z,10.80
2023-03-19T23:15:15.293Z,10.80
2023-03-19T23:19:34.493Z,10.80
2023-03-19T23:23:54.684Z,10.80
2023-03-19T23:28:20.513Z,10.90
2023-03-19T23:32:39.598Z,10.90
2023-03-19T23:36:58.068Z,10.90
2023-03-19T23:41:23.881Z,10.90
2023-03-19T23:45:45.529Z,11.00
2023-03-19T23:50:04.069Z,11.00
2023-03-19T23:54:29.766Z,11.00
2023-03-19T23:58:51.013Z,10.90
